Metar Aviation Weather Data KAVP Wilkes-Barre / Scranton International

36°F Temp
36°F Dewpoint
100% Humidity
Temperature
MPH
0 KM/H
KTS
Calm
Due North

Wind Speed
Misty
Conditions
Pressure 1011 (hPa) - 29.86 (in)
Visibility 1.0 (mi) - 2 (km)

Current Conditions
KAVP
Wilkes-Barre / Scranton International
Metar :KAVP 200926Z AUTO 00000KT 1SM R04/2800V4000FT BR OVC003 02/02 A2986 RMK AO2 T00170017
Tue 20th November 04:26 am

Wilkes-Barre / Scranton International
  Metar Aviation API Data Provided by https://www.checkwx.com/ PHP scripts by weather34.com ©2018